Latest Weather Observations for Broome

IDW60801

Issued at 2:05 pm WST Tuesday 29 July 2014 (issued every 30 minutes, with the page automatically refreshed every 10 minutes)

About weather observations | Map of weather stations | Latest weather observations for WA | Other Formats
Station Details ID: 003003 Name: BROOME AIRPORT Lat: -17.95 Lon: 122.24 Height: 7.42 m
Data from the previous 72 hours. | See also: Recent months at Broome
Date/Time
WST
Temp
°C
App
Temp
°C
Dew
Point
Rel
Hum
%
Delta-T
°C
Wind Press
QNH
hPa
Press
MSL
hPa
Rain
since 9 am
mm
Dir
 
Spd
km/h
Gust
km/h
Spd
kts
Gust
kts
29/02:00pm 32.8 29.1 4.6 17 14.8 E 13 24 7 13 1014.2 - 0.0
29/01:30pm 32.9 29.1 4.1 16 15.0 NE 13 20 7 11 1014.4 - 0.0
29/01:00pm 32.5 27.7 5.4 18 14.4 NE 20 33 11 18 1014.6 - 0.0
29/12:30pm 33.5 28.2 3.2 15 15.6 E 20 24 11 13 1014.9 - 0.0
29/12:00pm 33.9 29.3 6.6 18 14.9 NE 20 32 11 17 1015.4 1015.3 0.0
29/11:30am 33.5 28.9 5.4 17 15.0 ENE 19 28 10 15 1015.9 - 0.0
29/11:00am 32.2 28.2 5.1 18 14.3 ENE 15 24 8 13 1016.4 - 0.0
29/10:30am 31.3 26.4 5.2 19 13.7 E 20 30 11 16 1016.8 - 0.0
29/10:00am 30.5 25.9 5.6 21 13.1 E 19 28 10 15 1017.1 - 0.0
29/09:30am 28.8 24.6 5.9 23 12.0 E 17 26 9 14 1017.4 - 0.0
29/09:00am 27.6 24.8 8.7 30 10.3 ESE 13 17 7 9 1017.3 1017.2 0.0
29/08:30am 27.2 23.5 7.8 29 10.4 ESE 17 24 9 13 1017.2 - 0.0
29/08:00am 24.7 22.7 8.7 36 8.6 E 9 17 5 9 1016.8 - 0.0
29/07:30am 22.6 21.3 10.1 45 6.8 ESE 7 11 4 6 1016.5 - 0.0
29/07:00am 21.7 20.3 11.0 50 5.9 E 9 11 5 6 1016.4 - 0.0
29/06:30am 22.1 21.0 10.8 48 6.2 ESE 7 11 4 6 1016.1 - 0.0
29/06:00am 22.6 21.1 10.4 46 6.7 ESE 9 15 5 8 1015.8 1015.7 0.0
29/05:30am 22.2 21.3 12.5 54 5.5 ESE 9 13 5 7 1015.6 - 0.0
29/05:00am 21.5 21.9 15.4 68 3.6 E 7 9 4 5 1015.6 - 0.0
29/04:30am 22.8 22.8 15.1 62 4.6 SE 9 11 5 6 1015.4 - 0.0
29/04:00am 23.4 22.6 15.0 59 5.0 SSE 13 17 7 9 1015.4 - 0.0
29/03:30am 22.9 23.2 16.1 65 4.1 SE 9 13 5 7 1015.3 - 0.0
29/03:00am 20.3 21.8 17.7 85 1.6 NE 6 7 3 4 1015.4 1015.3 0.0
29/02:30am 20.5 23.2 17.7 84 1.7 CALM 0 0 0 0 1015.1 - 0.0
29/02:00am 20.5 23.2 17.7 84 1.7 CALM 0 0 0 0 1015.2 - 0.0
29/01:30am 20.8 22.2 17.4 81 2.1 ESE 6 9 3 5 1015.5 - 0.0
29/01:00am 20.3 22.5 17.4 83 1.8 N 2 6 1 3 1015.5 - 0.0
29/12:30am 20.9 22.3 17.8 82 1.9 NNE 7 15 4 8 1015.7 - 0.0
29/12:00am 21.2 24.1 18.3 83 1.8 ESE 0 7 0 4 1015.8 1015.7 0.0
 
Date/Time
WST
Temp
°C
App
Temp
°C
Dew
Point
Rel
Hum
%
Delta-T
°C
Wind Press
QNH
hPa
Press
MSL
hPa
Rain
since 9 am
mm
Dir
 
Spd
km/h
Gust
km/h
Spd
kts
Gust
kts
28/11:30pm 21.2 24.0 18.0 82 2.0 CALM 0 0 0 0 1015.8 - 0.0
28/11:00pm 21.7 24.1 18.0 79 2.3 SSW 2 11 1 6 1015.9 - 0.0
28/10:30pm 21.4 23.8 18.0 81 2.1 NNW 2 7 1 4 1016.1 - 0.0
28/10:00pm 22.1 24.1 17.9 77 2.6 SE 4 9 2 5 1016.2 - 0.0
28/09:30pm 20.9 23.2 17.7 82 2.0 ESE 2 15 1 8 1016.4 - 0.0
28/09:00pm 21.3 23.4 18.2 82 1.9 ESE 4 7 2 4 1016.2 1016.1 0.0
28/08:30pm 21.9 23.6 18.4 80 2.2 N 7 9 4 5 1016.0 - 0.0
28/08:00pm 21.4 24.1 17.8 80 2.2 CALM 0 0 0 0 1016.0 - 0.0
28/07:30pm 22.4 24.2 18.7 79 2.3 WNW 7 9 4 5 1015.7 - 0.0
28/07:00pm 22.6 24.5 18.5 77 2.6 NW 6 7 3 4 1015.2 - 0.0
28/06:30pm 23.2 24.3 18.1 73 3.2 NW 9 11 5 6 1014.9 - 0.0
28/06:00pm 23.3 25.0 18.4 74 3.1 NW 7 11 4 6 1014.5 1014.4 0.0
28/05:30pm 24.0 24.9 18.3 70 3.6 WNW 11 20 6 11 1014.2 - 0.0
28/05:00pm 25.1 25.5 18.1 65 4.4 WNW 13 19 7 10 1014.0 - 0.0
28/04:30pm 26.0 26.3 17.9 61 5.1 W 13 20 7 11 1013.8 - 0.0
28/04:00pm 26.3 25.4 17.7 59 5.4 W 19 26 10 14 1013.7 - 0.0
28/03:30pm 26.1 25.3 18.0 61 5.1 W 19 24 10 13 1013.7 - 0.0
28/03:00pm 26.5 25.0 16.8 55 6.0 W 20 30 11 16 1013.7 1013.6 0.0
28/02:30pm 28.7 26.9 15.5 44 8.1 WNW 19 28 10 15 1013.4 - 0.0
28/02:00pm 31.2 28.0 7.0 22 13.1 S 13 20 7 11 1013.5 - 0.0
28/01:30pm 31.4 27.8 6.8 21 13.3 S 15 20 8 11 1013.8 - 0.0
28/01:00pm 32.1 28.4 6.5 20 13.8 SSE 15 20 8 11 1014.4 - 0.0
28/12:30pm 31.5 28.6 6.6 21 13.4 SSE 11 17 6 9 1014.9 - 0.0
28/12:00pm 30.8 27.3 5.6 20 13.3 S 13 20 7 11 1015.5 1015.4 0.0
28/11:30am 29.5 26.2 6.6 23 12.2 S 13 19 7 10 1016.2 - 0.0
28/11:00am 29.6 26.0 6.8 23 12.2 SSE 15 19 8 10 1016.7 - 0.0
28/10:30am 28.7 26.0 7.2 25 11.5 SE 11 15 6 8 1017.2 - 0.0
28/10:00am 26.8 23.9 8.0 30 10.1 SE 13 17 7 9 1017.6 - 0.0
28/09:30am 25.0 21.5 7.3 32 9.3 SE 15 19 8 10 1017.9 - 0.0
28/09:05am - - - - - - - - - - - - -
28/09:00am 23.1 20.4 8.9 40 7.6 E 13 17 7 9 1018.0 1017.9 0.0
28/08:30am 22.5 19.2 6.4 35 8.2 ESE 13 19 7 10 1017.6 - 0.0
28/08:00am 21.5 19.1 8.6 43 6.8 ESE 11 15 6 8 1017.2 - 0.0
28/07:30am 21.0 18.6 8.6 45 6.5 SSE 11 17 6 9 1017.2 - 0.0
28/07:00am 19.6 17.9 9.8 53 5.2 SE 9 15 5 8 1017.0 - 0.0
28/06:30am 19.3 16.8 8.3 49 5.7 SE 11 15 6 8 1017.0 - 0.0
28/06:00am 18.0 15.4 7.7 51 5.2 SE 11 17 6 9 1016.9 1016.8 0.0
28/05:30am 14.9 13.0 11.9 82 1.6 ENE 13 15 7 8 1016.7 - 0.0
28/05:00am 14.9 14.4 12.5 85 1.3 NE 7 9 4 5 1016.0 - 0.0
28/04:30am 16.9 16.3 13.5 80 1.9 SE 9 13 5 7 1015.9 - 0.0
28/04:00am 20.4 19.3 12.0 58 4.7 SSE 9 11 5 6 1015.6 - 0.0
28/03:30am 20.6 19.5 13.2 62 4.2 SE 11 19 6 10 1015.9 - 0.0
28/03:00am 20.9 20.1 13.0 60 4.5 S 9 13 5 7 1015.6 1015.5 0.0
28/02:30am 21.5 19.8 11.2 52 5.7 S 11 15 6 8 1015.5 - 0.0
28/02:00am 21.6 19.8 9.5 46 6.5 S 9 13 5 7 1015.7 - 0.0
28/01:30am 21.4 20.0 11.0 51 5.7 S 9 13 5 7 1015.9 - 0.0
28/01:00am 21.8 20.3 10.7 49 6.1 SSE 9 15 5 8 1016.4 - 0.0
28/12:30am 20.8 20.2 14.6 67 3.6 SE 11 15 6 8 1017.0 - 0.0
28/12:00am 22.6 20.8 12.2 51 5.9 S 13 24 7 13 1016.9 1016.8 0.0
 
Date/Time
WST
Temp
°C
App
Temp
°C
Dew
Point
Rel
Hum
%
Delta-T
°C
Wind Press
QNH
hPa
Press
MSL
hPa
Rain
since 9 am
mm
Dir
 
Spd
km/h
Gust
km/h
Spd
kts
Gust
kts
27/11:30pm 21.9 20.0 10.6 48 6.2 SSW 11 17 6 9 1017.1 - 0.0
27/11:00pm 22.6 19.8 11.3 48 6.3 SSW 17 20 9 11 1017.2 - 0.0
27/10:30pm 21.7 20.9 12.9 57 5.0 S 9 11 5 6 1017.3 - 0.0
27/10:00pm 18.1 18.8 15.7 86 1.4 SSW 6 9 3 5 1017.3 - 0.0
27/09:30pm 17.2 19.1 15.8 91 0.8 CALM 0 0 0 0 1017.4 - 0.0
27/09:15pm 17.4 19.4 16.0 91 0.8 CALM 0 0 0 0 1017.4 - 0.0
27/09:00pm 17.9 20.0 16.2 90 1.0 CALM 0 - 0 - 1017.3 1017.2 0.0
27/08:30pm 17.6 19.6 15.9 90 1.0 CALM 0 0 0 0 1017.3 - 0.0
27/08:00pm 18.5 19.0 16.5 88 1.2 NNE 9 11 5 6 1017.1 - 0.0
27/07:30pm 22.2 23.5 17.0 72 3.2 WSW 6 9 3 5 1016.8 - 0.0
27/07:00pm 22.1 23.6 18.8 81 2.1 W 9 11 5 6 1016.5 - 0.0
27/06:30pm 22.2 24.2 19.2 83 1.9 WSW 7 11 4 6 1016.4 - 0.0
27/06:00pm 22.7 24.3 19.2 80 2.2 W 9 13 5 7 1016.1 1016.0 0.0
27/05:30pm 24.1 25.5 17.7 67 4.0 W 7 11 4 6 1016.1 - 0.0
27/05:00pm 25.9 25.4 14.9 50 6.6 NW 11 15 6 8 1015.8 - 0.0
27/04:30pm 27.4 25.9 13.1 41 8.4 W 13 17 7 9 1015.5 - 0.0
27/04:00pm 27.0 25.2 13.4 43 8.0 W 15 22 8 12 1015.3 - 0.0
27/03:30pm 27.5 25.5 13.9 43 8.1 W 17 22 9 12 1015.0 - 0.0
27/03:00pm 30.8 28.8 11.5 30 11.2 WSW 13 15 7 8 1014.9 1014.8 0.0
27/02:30pm 32.2 28.3 3.3 16 14.8 SE 13 20 7 11 1014.7 - 0.0
27/02:00pm 31.9 28.5 6.1 20 13.8 SSE 13 19 7 10 1014.9 - 0.0
27/01:30pm 32.4 27.2 2.6 15 15.1 NNE 19 28 10 15 1015.2 - 0.0
27/01:00pm 33.1 28.6 1.9 14 15.7 NNE 15 30 8 16 1015.7 - 0.0
27/12:30pm 32.1 27.3 2.6 15 14.9 NE 17 26 9 14 1016.2 - 0.0
27/12:00pm 32.2 27.1 2.9 15 14.9 ENE 19 26 10 14 1016.7 1016.6 0.0
27/11:30am 30.0 26.3 6.3 22 12.6 SE 15 19 8 10 1017.3 - 0.0
27/11:00am 28.4 24.9 5.4 23 11.9 SE 13 19 7 10 1017.9 - 0.0
27/10:30am 27.7 24.8 8.1 29 10.6 ESE 13 15 7 8 1018.4 - 0.0
27/10:00am 25.7 23.6 9.7 36 8.8 SE 11 17 6 9 1018.7 - 0.0
27/09:30am 23.2 20.1 8.8 39 7.7 SE 15 19 8 10 1018.9 - 0.0
27/09:00am 22.5 19.6 8.0 39 7.6 ESE 13 15 7 8 1019.1 1019.0 0.0
27/08:30am 21.3 18.4 8.0 42 6.9 SE 13 17 7 9 1019.1 - 0.0
27/08:00am 20.5 17.0 7.4 42 6.7 SE 15 19 8 10 1019.0 - 0.0
27/07:30am 19.4 17.4 10.0 54 5.0 ESE 11 13 6 7 1018.6 - 0.0
27/07:00am 16.3 14.7 10.2 67 3.2 ESE 9 11 5 6 1018.3 - 0.0
27/06:30am 12.6 11.5 9.9 83 1.4 ENE 6 7 3 4 1018.1 - 0.0
27/06:00am 12.8 11.9 10.5 86 1.2 E 6 9 3 5 1018.0 1017.9 0.0
27/05:30am 12.8 11.3 10.5 86 1.2 ENE 9 15 5 8 1018.0 - 0.0
27/05:00am 15.8 14.9 11.5 75 2.3 ESE 7 13 4 7 1017.5 - 0.0
27/04:30am 18.7 17.1 11.6 63 3.9 S 11 17 6 9 1017.2 - 0.0
27/04:00am 17.2 16.4 10.9 66 3.4 S 6 11 3 6 1017.4 - 0.0
27/03:30am 16.0 15.9 10.7 71 2.8 ESE 2 7 1 4 1017.6 - 0.0
27/03:00am 19.3 18.0 10.1 55 4.9 SE 7 13 4 7 1017.8 1017.7 0.0
27/02:30am 19.7 18.2 10.4 55 5.0 S 9 13 5 7 1017.7 - 0.0
27/02:00am 20.1 18.9 11.6 58 4.7 S 9 13 5 7 1017.8 - 0.0
27/01:30am 20.8 19.1 11.2 54 5.3 S 11 17 6 9 1017.8 - 0.0
27/01:00am 21.0 19.6 11.0 52 5.5 S 9 13 5 7 1018.1 - 0.0
27/12:30am 21.6 17.9 8.0 41 7.1 SSW 17 22 9 12 1018.1 - 0.0
27/12:00am 21.4 18.1 8.2 42 6.9 SSW 15 20 8 11 1018.2 1018.1 0.0
 
Date/Time
WST
Temp
°C
App
Temp
°C
Dew
Point
Rel
Hum
%
Delta-T
°C
Wind Press
QNH
hPa
Press
MSL
hPa
Rain
since 9 am
mm
Dir
 
Spd
km/h
Gust
km/h
Spd
kts
Gust
kts
26/11:30pm 21.1 18.4 10.4 50 5.8 SSW 15 19 8 10 1018.4 - 0.0
26/11:00pm 21.1 20.0 12.0 56 5.1 S 9 13 5 7 1018.6 - 0.0
26/10:30pm 21.6 19.3 10.6 49 6.0 S 13 17 7 9 1018.5 - 0.0
26/10:00pm 21.4 19.7 12.3 56 5.1 SSW 13 19 7 10 1018.5 - 0.0
26/09:30pm 21.4 20.0 13.4 60 4.6 SSW 13 17 7 9 1018.5 - 0.0
26/09:00pm 21.5 21.0 13.9 62 4.4 SSW 9 13 5 7 1018.6 1018.5 0.0
26/08:30pm 17.9 19.7 15.5 86 1.4 CALM 0 0 0 0 1018.6 - 0.0
26/08:00pm 18.6 20.5 15.7 83 1.7 CALM 0 0 0 0 1018.6 - 0.0
26/07:30pm 20.0 22.0 16.0 78 2.4 CALM 0 0 0 0 1018.5 - 0.0
26/07:00pm 21.5 23.5 16.0 71 3.3 CALM 0 0 0 0 1018.2 - 0.0
26/06:30pm 22.0 22.3 16.9 73 3.1 W 11 15 6 8 1017.8 - 0.0
26/06:00pm 22.3 22.9 16.7 70 3.4 N 9 15 5 8 1017.4 1017.3 0.0
26/05:30pm 23.4 21.6 15.6 61 4.7 WSW 19 26 10 14 1016.8 - 0.0
26/05:00pm 24.7 21.6 13.4 49 6.6 SW 22 28 12 15 1016.5 - 0.0
26/04:30pm 25.8 21.6 11.1 39 8.3 SW 24 30 13 16 1016.3 - 0.0
26/04:00pm 26.2 22.9 14.1 47 7.2 SW 24 33 13 18 1016.2 - 0.0
26/03:30pm 27.1 22.4 10.5 35 9.3 SW 26 32 14 17 1016.1 - 0.0
26/03:00pm 30.8 26.5 3.1 17 14.0 SSW 15 20 8 11 1015.9 1015.8 0.0
26/02:30pm 31.2 26.9 3.3 17 14.2 S 15 19 8 10 1015.9 - 0.0

Other Formats:

Comma delimited format used in spreadsheet applications
http://www.bom.gov.au/fwo/IDW60801/IDW60801.94203.axf

JavaScript Object Notation format (JSON) in row-major order
http://www.bom.gov.au/fwo/IDW60801/IDW60801.94203.json